Marfa, TX

9:12 AM CDT on April 19, 2015 (GMT -0500)
FA Ranch Limpia Crossing | | Change Station
CLOSE
Current Station
Personal Weather Station
Location: Fort Davis, TX
Elevation: 5262 ft
Nearby Weather Stations

Elev 5262 ft 30.62 °N, 103.97 °W | Updated 12 minutes ago

Clear
Clear
60.6 °F
Feels Like 60.6 °F
N
8.3
Wind Variable Wind from North

Today
High -- | Low -- °F
--% Chance of Precip.
Yesterday
High -- | Low -- °F
Precip. -- in
7:24 AM 8:26 PM
New Moon, 1% visible
Pressure 30.04 in
Visibility 10.0 miles
Clouds Clear
Dew Point 23 °F
Humidity 23%
Rainfall 0.00 in
Snow Depth Not available.
UV 1 out of 12
Pollen 10.00 out of 12
Air Quality Not available.
Flu Activity Local Activity
METAR KMRF 191355Z AUTO 28010KT 10SM CLR 16/M03 A3004 RMK AO1

More Conditions Fewer Conditions

Pressure 30.04 in
Visibility 10.0 miles
Clouds Clear
Dew Point 23 °F
Humidity 23%
Rainfall 0.00 in
Snow Depth Not available.
UV 1 out of 12
Pollen 10.00 out of 12
Air Quality Not available.
Flu Activity Local Activity
METAR KMRF 191355Z AUTO 28010KT 10SM CLR 16/M03 A3004 RMK AO1

More Conditions Fewer Conditions

10-Day Weather Forecast

Almanac

Astronomy

Apr. 19, 2015 Rise Set
Actual Time
Civil Twilight
Nautical Twilight
Astronomical Twilight
Moon
Length of Visible Light
Length of Day
Tomorrow will be .
, % of the Moon is Illuminated

Today's Extremes

State Highs State Lows

Community

WunderPhotos

Upload Photos

1,814,807 photos uploaded!

WunderBlogs® & News

Nearby

Air Quality

  Air Quality AQ Index Pollutant
Not available.

Snow Depth

Station Depth Elevation

Earthquake Activity

City Distance Mag. Time & Date
Minimum magnitude displayed is 2.5.

Coastal Water Temperatures

Place Temperature

Stations

Nearby Weather Stations

Station Location Temp. Windchill Dew Point Humidity Wind Precip. Elev Updated Type